Time;durP1;ratioP1;P1;durP2;ratioP2;P2;SDS_P1;SDS_P2;PMS_P1;PMS_P2;Temp;Humidity;BMP_temperature;BMP_pressure;BME280_temperature;BME280_humidity;BME280_pressure;Samples;Min_cycle;Max_cycle;Signal;HPM_P1;HPM_P2
2022/09/04 00:02:15;;;;;;;1.05;0.50;;;17.10;61.10;;;;;;5102204;28;20105;-80
2022/09/04 00:04:52;;;;;;;1.20;0.88;;;17.10;61.10;;;;;;5084965;28;20074;-80
2022/09/04 00:07:32;;;;;;;1.80;0.60;;;17.10;61.20;;;;;;5068516;28;20471;-80
2022/09/04 00:10:21;;;;;;;1.85;0.77;;;17.00;61.10;;;;;;5053965;28;20044;-80
2022/09/04 00:13:00;;;;;;;1.13;0.45;;;17.00;61.60;;;;;;5071932;28;20075;-80
2022/09/04 00:15:33;;;;;;;1.88;0.70;;;17.00;61.40;;;;;;5072099;28;20601;-81
2022/09/04 00:18:08;;;;;;;1.15;0.47;;;17.00;61.40;;;;;;5055190;28;20058;-80
2022/09/04 00:20:49;;;;;;;1.35;0.80;;;17.00;61.40;;;;;;5055267;28;20072;-80
2022/09/04 00:23:30;;;;;;;3.00;0.77;;;17.00;61.30;;;;;;5071599;28;20445;-80
2022/09/04 00:26:13;;;;;;;2.03;0.60;;;16.90;61.50;;;;;;5088511;28;20044;-81
2022/09/04 00:28:46;;;;;;;0.77;0.57;;;16.90;61.50;;;;;;5087395;28;20080;-80
2022/09/04 00:31:28;;;;;;;0.85;0.60;;;16.90;61.50;;;;;;5071432;28;20544;-80
2022/09/04 00:34:13;;;;;;;1.77;0.65;;;16.90;61.40;;;;;;5071418;28;20510;-80
2022/09/04 00:36:43;;;;;;;1.27;0.63;;;16.90;61.40;;;;;;5054642;28;20128;-80
2022/09/04 00:39:35;;;;;;;2.20;0.70;;;16.80;61.50;;;;;;5071084;28;20049;-80
2022/09/04 00:42:03;;;;;;;1.35;0.88;;;16.80;61.50;;;;;;5071343;28;20053;-80
2022/09/04 00:44:51;;;;;;;1.38;0.70;;;16.80;61.60;;;;;;5071259;28;20174;-80
2022/09/04 00:47:17;;;;;;;1.55;0.75;;;16.80;61.60;;;;;;5071434;28;20538;-80
2022/09/04 00:49:49;;;;;;;3.47;1.05;;;16.80;61.70;;;;;;5071131;28;20174;-80
2022/09/04 00:53:01;;;;;;;1.50;0.80;;;16.70;61.60;;;;;;5054952;28;20398;-80
2022/09/04 00:55:45;;;;;;;1.05;0.68;;;16.70;62.00;;;;;;5071056;28;20120;-80
2022/09/04 00:58:36;;;;;;;1.52;0.60;;;16.70;61.80;;;;;;5054466;28;20071;-80
2022/09/04 01:01:03;;;;;;;0.70;0.60;;;16.70;61.90;;;;;;5087333;28;20541;-80
2022/09/04 01:03:31;;;;;;;1.67;0.65;;;16.70;61.80;;;;;;5104819;28;20043;-80
2022/09/04 01:05:57;;;;;;;1.52;0.55;;;16.70;61.90;;;;;;5087680;28;20092;-80
2022/09/04 01:08:48;;;;;;;1.75;0.70;;;16.70;62.00;;;;;;5070812;28;20044;-81
2022/09/04 01:11:44;;;;;;;1.20;0.73;;;16.60;62.10;;;;;;5054345;28;20040;-80
2022/09/04 01:14:25;;;;;;;;;;;16.60;62.20;;;;;;5071314;28;20040;-80
2022/09/04 01:17:13;;;;;;;1.17;0.70;;;16.60;62.80;;;;;;5070692;28;20125;-80
2022/09/04 01:20:06;;;;;;;2.25;0.82;;;16.60;62.20;;;;;;5070463;28;20036;-80
2022/09/04 01:22:45;;;;;;;2.30;0.80;;;16.50;62.30;;;;;;5053764;28;20576;-79
2022/09/04 01:25:18;;;;;;;1.17;0.70;;;16.50;62.30;;;;;;5070604;28;20458;-80
2022/09/04 01:28:05;;;;;;;2.30;1.33;;;16.50;63.20;;;;;;5070677;28;20047;-80
2022/09/04 01:30:42;;;;;;;3.20;1.02;;;16.50;62.80;;;;;;5070322;28;20040;-80
2022/09/04 01:33:30;;;;;;;3.63;0.75;;;16.50;62.50;;;;;;5070642;28;20098;-80
2022/09/04 01:36:02;;;;;;;3.50;0.80;;;16.50;62.70;;;;;;5053778;28;20109;-80
2022/09/04 01:38:42;;;;;;;3.13;0.73;;;16.50;62.60;;;;;;5070010;28;20131;-80
2022/09/04 01:41:36;;;;;;;1.27;0.82;;;16.50;62.90;;;;;;5104029;28;20637;-80
2022/09/04 01:44:05;;;;;;;0.88;0.70;;;16.50;63.00;;;;;;5053726;28;20044;-80
2022/09/04 01:46:44;;;;;;;1.38;0.80;;;16.50;62.90;;;;;;5053461;28;20102;-80
2022/09/04 01:49:28;;;;;;;3.03;0.90;;;16.40;63.00;;;;;;5069863;28;20308;-80
2022/09/04 01:52:15;;;;;;;1.25;0.70;;;16.40;63.00;;;;;;5069920;28;20133;-80
2022/09/04 01:55:10;;;;;;;1.85;0.70;;;16.40;63.20;;;;;;5053386;28;20093;-80
2022/09/04 01:58:04;;;;;;;1.35;0.65;;;16.40;63.30;;;;;;5053209;28;20048;-80
2022/09/04 02:00:39;;;;;;;1.90;0.80;;;16.40;63.30;;;;;;5069725;28;20040;-80
2022/09/04 02:03:11;;;;;;;2.85;0.77;;;16.40;63.20;;;;;;5103729;28;20040;-80
2022/09/04 02:05:47;;;;;;;2.28;0.82;;;16.40;63.30;;;;;;5069494;28;20056;-80
2022/09/04 02:08:34;;;;;;;;;;;16.30;63.30;;;;;;5053649;28;20136;-80
2022/09/04 02:11:22;;;;;;;0.80;0.63;;;16.30;64.80;;;;;;5069500;28;19995;-80
2022/09/04 02:14:14;;;;;;;1.60;0.70;;;16.30;64.30;;;;;;5069364;28;20067;-80
2022/09/04 02:16:59;;;;;;;2.45;0.70;;;16.30;64.30;;;;;;5103299;28;20028;-80
2022/09/04 02:19:50;;;;;;;1.50;0.70;;;16.30;64.30;;;;;;5052779;28;20277;-80
2022/09/04 02:22:33;;;;;;;1.48;0.80;;;16.20;64.10;;;;;;5052954;28;20202;-80
2022/09/04 02:25:31;;;;;;;2.40;0.90;;;16.20;64.40;;;;;;5069179;28;20510;-80
2022/09/04 02:28:36;;;;;;;1.15;0.73;;;16.20;64.80;;;;;;5103042;28;20124;-80
2022/09/04 02:31:19;;;;;;;1.25;0.73;;;16.20;65.40;;;;;;5039329;28;20052;-80
2022/09/04 02:33:53;;;;;;;1.50;0.90;;;16.10;64.50;;;;;;5069359;28;20036;-80
2022/09/04 02:36:38;;;;;;;1.83;0.75;;;16.10;64.60;;;;;;5103247;28;20048;-80
2022/09/04 02:39:26;;;;;;;1.95;0.80;;;16.10;64.80;;;;;;5102776;28;20494;-80
2022/09/04 02:42:09;;;;;;;1.83;1.00;;;16.10;64.90;;;;;;5103204;28;20435;-80
2022/09/04 02:45:14;;;;;;;4.10;0.90;;;16.00;65.30;;;;;;5052391;28;20040;-80
2022/09/04 02:48:00;;;;;;;1.67;0.80;;;16.00;65.70;;;;;;5060148;28;20564;-80
2022/09/04 02:50:38;;;;;;;3.17;1.33;;;16.00;65.50;;;;;;5102708;28;20044;-80
2022/09/04 02:53:18;;;;;;;2.33;1.17;;;16.00;66.10;;;;;;5085884;28;20072;-80
2022/09/04 02:56:11;;;;;;;1.67;0.80;;;16.00;65.70;;;;;;5069325;28;20040;-80
2022/09/04 02:58:56;;;;;;;1.13;0.75;;;15.90;66.30;;;;;;5068807;28;20409;-80
2022/09/04 03:01:41;;;;;;;4.57;1.05;;;15.90;67.00;;;;;;5052010;28;20047;-80
2022/09/04 03:04:20;;;;;;;1.45;0.80;;;15.90;66.50;;;;;;5068537;28;20048;-80
2022/09/04 03:07:07;;;;;;;1.90;0.90;;;15.80;66.30;;;;;;5069026;28;20083;-79
2022/09/04 03:09:45;;;;;;;1.30;1.02;;;15.80;66.60;;;;;;5052333;28;20441;-80
2022/09/04 03:12:37;;;;;;;1.63;1.05;;;15.80;66.60;;;;;;5051614;28;20076;-81
2022/09/04 03:15:15;;;;;;;2.63;1.02;;;15.80;67.10;;;;;;5102949;28;20080;-80
2022/09/04 03:17:58;;;;;;;1.65;1.00;;;15.80;66.90;;;;;;5102940;28;20389;-80
2022/09/04 03:20:27;;;;;;;1.70;0.98;;;15.80;66.80;;;;;;5102563;28;20504;-80
2022/09/04 03:23:10;;;;;;;2.00;0.90;;;15.70;66.70;;;;;;5068199;28;20079;-80
2022/09/04 03:26:04;;;;;;;3.45;1.20;;;15.70;66.90;;;;;;5051935;28;20051;-80
2022/09/04 03:28:38;;;;;;;3.22;1.38;;;15.60;67.80;;;;;;5085352;28;20052;-80
2022/09/04 03:31:17;;;;;;;2.15;1.13;;;15.70;67.40;;;;;;5068471;28;20046;-80
2022/09/04 03:33:51;;;;;;;4.30;1.10;;;15.60;67.60;;;;;;5068585;28;20033;-81
2022/09/04 03:36:35;;;;;;;2.25;1.10;;;15.70;67.70;;;;;;5051966;28;20048;-80
2022/09/04 03:39:32;;;;;;;1.58;0.82;;;15.50;68.00;;;;;;5102651;28;20055;-80
2022/09/04 03:42:22;;;;;;;2.22;1.05;;;15.60;68.30;;;;;;5065564;28;20055;-80
2022/09/04 03:45:09;;;;;;;2.00;1.00;;;15.60;68.50;;;;;;5070803;28;20406;-80
2022/09/04 03:48:16;;;;;;;2.05;1.15;;;15.50;68.90;;;;;;5088983;28;20048;-80
2022/09/04 03:51:03;;;;;;;;;;;15.50;68.90;;;;;;5056109;28;20083;-80
2022/09/04 03:53:34;;;;;;;2.05;1.00;;;15.40;70.80;;;;;;5089364;28;19916;-80
2022/09/04 03:56:17;;;;;;;2.58;1.05;;;15.40;68.70;;;;;;5072011;28;20044;-80
2022/09/04 03:59:05;;;;;;;1.73;0.90;;;15.40;68.80;;;;;;5106053;28;20084;-80
2022/09/04 04:02:05;;;;;;;2.00;1.00;;;15.30;69.40;;;;;;5072021;28;20051;-80
2022/09/04 04:05:06;;;;;;;1.45;0.80;;;15.30;69.60;;;;;;5055425;28;20406;-80
2022/09/04 04:07:47;;;;;;;2.45;0.98;;;15.30;70.00;;;;;;5071946;28;20048;-80
2022/09/04 04:10:23;;;;;;;1.60;0.95;;;15.30;69.40;;;;;;5088819;28;20123;-80
2022/09/04 04:13:03;;;;;;;2.13;1.27;;;15.30;70.20;;;;;;5071537;28;20047;-80
2022/09/04 04:15:53;;;;;;;3.28;1.08;;;15.30;70.60;;;;;;5089045;28;20437;-80
2022/09/04 04:18:43;;;;;;;3.40;1.50;;;15.30;70.40;;;;;;5072000;28;20083;-80
2022/09/04 04:21:54;;;;;;;2.38;1.30;;;15.20;70.90;;;;;;5088765;28;20409;-80
2022/09/04 04:24:37;;;;;;;3.25;1.00;;;15.10;70.70;;;;;;5054706;28;20135;-80
2022/09/04 04:27:27;;;;;;;2.63;1.05;;;15.10;70.70;;;;;;5105423;28;20052;-80
2022/09/04 04:30:08;;;;;;;1.40;0.80;;;15.10;71.20;;;;;;5105641;28;20130;-80
2022/09/04 04:32:49;;;;;;;1.98;1.15;;;15.10;70.90;;;;;;5088279;28;20136;-80
2022/09/04 04:35:23;;;;;;;1.85;1.13;;;15.10;71.30;;;;;;5071577;28;20044;-80
2022/09/04 04:38:17;;;;;;;3.93;1.10;;;15.10;71.00;;;;;;5105331;28;20497;-80
2022/09/04 04:40:46;;;;;;;1.35;0.90;;;15.00;72.20;;;;;;5054907;28;20074;-80
2022/09/04 04:43:27;;;;;;;2.28;1.20;;;15.00;71.20;;;;;;5088173;28;20504;-80
2022/09/04 04:46:02;;;;;;;2.13;1.27;;;15.00;71.80;;;;;;5105286;28;20036;-80
2022/09/04 04:48:52;;;;;;;1.02;0.70;;;15.00;71.20;;;;;;5105217;28;20047;-80
2022/09/04 04:51:30;;;;;;;1.50;0.95;;;15.00;71.90;;;;;;5088282;28;20045;-80
2022/09/04 04:54:17;;;;;;;2.88;1.10;;;15.00;71.80;;;;;;5105030;28;20406;-80
2022/09/04 04:57:04;;;;;;;2.05;1.10;;;15.00;71.90;;;;;;5071190;28;20036;-80
2022/09/04 04:59:44;;;;;;;2.50;1.40;;;15.00;71.80;;;;;;5071001;28;20119;-81
2022/09/04 05:02:29;;;;;;;2.15;1.13;;;15.00;72.10;;;;;;5071259;28;20067;-80
2022/09/04 05:05:12;;;;;;;2.63;1.15;;;15.00;72.10;;;;;;5071014;28;20052;-80
2022/09/04 05:07:47;;;;;;;2.13;1.00;;;14.90;72.20;;;;;;5054437;28;20091;-80
2022/09/04 05:10:43;;;;;;;2.15;0.98;;;15.00;72.10;;;;;;5054561;28;20048;-80
2022/09/04 05:13:31;;;;;;;2.60;1.20;;;15.00;73.50;;;;;;5070514;28;20123;-80
2022/09/04 05:16:14;;;;;;;1.35;0.80;;;15.00;72.80;;;;;;5070932;28;20044;-80
2022/09/04 05:19:15;;;;;;;2.28;1.27;;;15.00;73.70;;;;;;5087506;28;20036;-80
2022/09/04 05:21:58;;;;;;;3.53;1.27;;;15.00;73.10;;;;;;5070043;28;20060;-80
2022/09/04 05:24:54;;;;;;;3.72;1.33;;;15.00;72.60;;;;;;5070288;28;20505;-80
2022/09/04 05:27:39;;;;;;;;;;;15.00;74.00;;;;;;5071185;28;20063;-80
2022/09/04 05:30:32;;;;;;;2.08;1.20;;;15.00;75.90;;;;;;5070529;28;19922;-80
2022/09/04 05:33:10;;;;;;;1.98;1.10;;;15.00;73.20;;;;;;5053562;28;20497;-80
2022/09/04 05:35:47;;;;;;;2.53;1.35;;;15.10;73.30;;;;;;5104166;28;20036;-80
2022/09/04 05:38:37;;;;;;;2.08;0.95;;;15.00;73.10;;;;;;5070342;28;20084;-80
2022/09/04 05:41:17;;;;;;;1.83;0.98;;;15.00;73.20;;;;;;5053570;28;20089;-80
2022/09/04 05:43:57;;;;;;;2.30;1.17;;;15.10;73.60;;;;;;5104124;28;20044;-80
2022/09/04 05:46:49;;;;;;;1.40;1.13;;;15.10;73.90;;;;;;5086800;28;20036;-80
2022/09/04 05:49:53;;;;;;;1.65;1.00;;;15.10;74.10;;;;;;5070049;28;20494;-80
2022/09/04 05:52:32;;;;;;;2.08;1.08;;;15.10;74.90;;;;;;5070139;28;20072;-80
2022/09/04 05:55:24;;;;;;;1.25;0.80;;;15.10;73.20;;;;;;5069719;28;20174;-80
2022/09/04 05:58:17;;;;;;;1.75;1.25;;;15.20;73.20;;;;;;5041554;28;20049;-80
2022/09/04 06:01:00;;;;;;;3.03;1.25;;;15.20;73.90;;;;;;5086861;28;20064;-80
2022/09/04 06:03:28;;;;;;;2.08;1.33;;;15.20;73.90;;;;;;5086824;28;20044;-80
2022/09/04 06:06:19;;;;;;;2.35;1.35;;;15.30;73.10;;;;;;5086542;28;20044;-80
2022/09/04 06:09:27;;;;;;;2.50;1.40;;;15.30;73.90;;;;;;5069702;28;20513;-80
2022/09/04 06:12:01;;;;;;;1.85;1.10;;;15.40;73.90;;;;;;5058733;28;20048;-80
2022/09/04 06:15:06;;;;;;;1.85;1.27;;;15.40;73.00;;;;;;5069813;28;20123;-80
2022/09/04 06:17:54;;;;;;;2.20;1.38;;;15.40;74.40;;;;;;5063555;28;20053;-80
2022/09/04 06:20:44;;;;;;;3.67;1.40;;;15.40;73.20;;;;;;5069779;28;20040;-80
2022/09/04 06:23:17;;;;;;;2.30;1.38;;;15.40;74.30;;;;;;5052375;28;20061;-80
2022/09/04 06:25:55;;;;;;;2.67;1.38;;;15.50;73.40;;;;;;5069500;28;20048;-80
2022/09/04 06:28:52;;;;;;;2.22;1.25;;;15.50;73.30;;;;;;5069071;28;20048;-80
2022/09/04 06:31:18;;;;;;;1.45;0.90;;;15.50;74.10;;;;;;5069199;28;20044;-80
2022/09/04 06:34:23;;;;;;;1.48;1.00;;;15.60;73.60;;;;;;5086294;28;20040;-80
2022/09/04 06:37:07;;;;;;;2.63;1.23;;;15.60;74.60;;;;;;5069103;28;20041;-80
2022/09/04 06:39:43;;;;;;;3.22;0.85;;;15.60;73.60;;;;;;5052454;28;20044;-80
2022/09/04 06:42:36;;;;;;;2.00;1.27;;;15.70;73.80;;;;;;5069223;28;20072;-80
2022/09/04 06:45:11;;;;;;;1.40;0.90;;;15.70;74.20;;;;;;5068936;28;20059;-80
2022/09/04 06:47:58;;;;;;;2.65;1.20;;;15.70;73.70;;;;;;5069118;28;20229;-80
2022/09/04 06:51:06;;;;;;;1.85;1.15;;;15.70;73.80;;;;;;5069037;28;20079;-80
2022/09/04 06:54:23;;;;;;;2.42;0.95;;;15.80;73.70;;;;;;4994843;28;20041;-80
2022/09/04 06:57:09;;;;;;;4.95;1.67;;;15.80;74.90;;;;;;5011459;28;20124;-80
2022/09/04 06:59:50;;;;;;;2.70;1.10;;;15.80;73.80;;;;;;5067856;28;20044;-80
2022/09/04 07:02:32;;;;;;;2.40;1.20;;;15.90;74.00;;;;;;5052306;28;20044;-80
2022/09/04 07:05:36;;;;;;;1.58;0.82;;;16.00;73.80;;;;;;5085513;28;20051;-81
2022/09/04 07:08:52;;;;;;;1.88;1.05;;;16.00;73.80;;;;;;5011273;28;20077;-80
2022/09/04 07:11:41;;;;;;;2.50;1.02;;;16.00;74.20;;;;;;5008163;28;20061;-80
2022/09/04 07:14:41;;;;;;;2.65;1.30;;;16.10;74.30;;;;;;4991486;28;20432;-80
2022/09/04 07:17:13;;;;;;;1.88;1.10;;;16.20;74.60;;;;;;5057310;28;20052;-80
2022/09/04 07:20:04;;;;;;;3.72;0.82;;;16.20;73.70;;;;;;5054194;28;20045;-80
2022/09/04 07:22:36;;;;;;;1.95;1.00;;;16.20;73.90;;;;;;5056139;28;20051;-80
2022/09/04 07:25:31;;;;;;;2.33;0.98;;;16.30;73.70;;;;;;5072600;28;20057;-80
2022/09/04 07:28:28;;;;;;;1.98;1.13;;;16.40;74.70;;;;;;5106432;28;20053;-80
2022/09/04 07:31:19;;;;;;;3.03;1.00;;;16.40;75.30;;;;;;5106435;28;20048;-80
2022/09/04 07:34:07;;;;;;;2.30;0.95;;;16.50;74.60;;;;;;5056537;28;20037;-80
2022/09/04 07:36:55;;;;;;;2.10;1.10;;;16.50;74.00;;;;;;5056100;28;20458;-80
2022/09/04 07:39:49;;;;;;;2.03;1.10;;;16.60;74.70;;;;;;5072545;28;20047;-80
2022/09/04 07:42:34;;;;;;;1.75;1.00;;;16.70;75.60;;;;;;5106902;28;20338;-80
2022/09/04 07:45:26;;;;;;;2.33;1.00;;;16.70;74.40;;;;;;5106206;28;20405;-80
2022/09/04 07:48:04;;;;;;;1.42;0.73;;;16.70;75.00;;;;;;5106189;28;20082;-80
2022/09/04 07:50:36;;;;;;;2.83;1.27;;;16.80;74.40;;;;;;5056005;28;20033;-81
2022/09/04 07:53:29;;;;;;;1.55;0.98;;;16.90;74.40;;;;;;5072409;28;20036;-80
2022/09/04 07:56:28;;;;;;;3.75;1.10;;;16.90;75.50;;;;;;5089033;28;20119;-80
2022/09/04 07:59:32;;;;;;;2.15;1.15;;;17.00;75.30;;;;;;5106244;28;20128;-80
2022/09/04 08:02:05;;;;;;;1.27;0.95;;;17.10;75.00;;;;;;5055262;28;20554;-81
2022/09/04 08:04:36;;;;;;;2.33;1.20;;;17.10;74.60;;;;;;5106078;28;20044;-80
2022/09/04 08:07:06;;;;;;;1.48;0.90;;;17.20;74.10;;;;;;5105744;28;20048;-80
2022/09/04 08:10:05;;;;;;;1.63;1.17;;;17.30;74.10;;;;;;5071824;28;20040;-80
2022/09/04 08:12:53;;;;;;;1.65;1.20;;;17.30;74.80;;;;;;5105626;28;20477;-80
2022/09/04 08:15:41;;;;;;;2.10;1.10;;;17.40;74.10;;;;;;5105688;28;20123;-80
2022/09/04 08:18:23;;;;;;;1.88;0.95;;;17.40;74.50;;;;;;5106052;28;20037;-80
2022/09/04 08:21:13;;;;;;;2.28;1.20;;;17.50;74.50;;;;;;5071881;28;20102;-80
2022/09/04 08:23:52;;;;;;;1.52;1.10;;;17.60;74.90;;;;;;5071465;28;20597;-80
2022/09/04 08:26:44;;;;;;;1.30;0.88;;;17.60;75.10;;;;;;5088684;28;20406;-81
2022/09/04 08:29:34;;;;;;;1.48;0.98;;;17.70;75.20;;;;;;5105246;28;20406;-80
2022/09/04 08:32:28;;;;;;;2.53;1.00;;;17.70;74.90;;;;;;5088452;28;20052;-80
2022/09/04 08:35:20;;;;;;;0.98;0.70;;;17.70;74.50;;;;;;5105456;28;20047;-80
2022/09/04 08:38:24;;;;;;;1.45;0.73;;;17.80;74.70;;;;;;5071983;28;20044;-80
2022/09/04 08:41:05;;;;;;;1.35;0.88;;;17.90;76.00;;;;;;5071506;28;20074;-80
2022/09/04 08:44:25;;;;;;;1.60;1.10;;;17.90;75.50;;;;;;5105214;28;20062;-80
2022/09/04 08:47:06;;;;;;;2.15;0.90;;;18.00;75.30;;;;;;5054650;28;20048;-80
2022/09/04 08:49:56;;;;;;;1.10;0.70;;;18.10;74.80;;;;;;5071326;28;20076;-80
2022/09/04 08:52:53;;;;;;;2.60;1.00;;;18.10;75.00;;;;;;5071480;28;20071;-80
2022/09/04 08:55:45;;;;;;;1.30;0.80;;;18.20;76.00;;;;;;5104930;28;20049;-80
2022/09/04 08:58:29;;;;;;;1.73;0.88;;;18.30;75.60;;;;;;5054226;28;20308;-80
2022/09/04 09:01:13;;;;;;;2.22;1.45;;;18.30;74.70;;;;;;5054282;28;20036;-80
2022/09/04 09:03:44;;;;;;;2.45;1.00;;;18.40;74.50;;;;;;5087857;28;20094;-80
2022/09/04 09:06:35;;;;;;;1.58;0.68;;;18.40;74.50;;;;;;5104784;28;20048;-80
2022/09/04 09:09:32;;;;;;;1.95;1.13;;;18.50;75.20;;;;;;5087596;28;20088;-80
2022/09/04 09:12:35;;;;;;;1.48;0.77;;;18.50;74.60;;;;;;5070749;28;20036;-80
2022/09/04 09:15:15;;;;;;;1.23;0.77;;;18.60;75.30;;;;;;5070957;28;20045;-80
2022/09/04 09:18:03;;;;;;;1.40;0.90;;;18.70;74.70;;;;;;5087591;28;20048;-80
2022/09/04 09:21:04;;;;;;;1.20;0.90;;;18.70;74.70;;;;;;5054254;28;20488;-80
2022/09/04 09:23:58;;;;;;;1.15;0.73;;;18.80;75.20;;;;;;5039513;28;20048;-80
2022/09/04 09:26:32;;;;;;;1.75;1.00;;;18.90;74.60;;;;;;5070256;28;20075;-81
2022/09/04 09:29:07;;;;;;;1.85;0.93;;;19.00;74.40;;;;;;5070459;28;20048;-80
2022/09/04 09:32:10;;;;;;;1.60;0.80;;;19.10;74.50;;;;;;5070325;28;20044;-80
2022/09/04 09:34:49;;;;;;;1.83;1.05;;;19.20;74.70;;;;;;5053692;28;20040;-80
2022/09/04 09:37:15;;;;;;;1.35;0.75;;;19.20;74.20;;;;;;5053783;28;20078;-80
2022/09/04 09:40:00;;;;;;;1.77;0.77;;;19.30;74.10;;;;;;5104160;28;20559;-80
2022/09/04 09:43:04;;;;;;;3.88;0.80;;;19.30;73.90;;;;;;5052570;28;20123;-80
2022/09/04 09:46:05;;;;;;;3.30;1.02;;;19.40;73.70;;;;;;5012686;28;20037;-80
2022/09/04 09:48:50;;;;;;;1.13;0.75;;;19.50;73.70;;;;;;5012620;28;20551;-80
2022/09/04 09:51:27;;;;;;;1.17;0.68;;;19.60;73.10;;;;;;5060857;28;20044;-80
2022/09/04 09:54:14;;;;;;;1.35;0.77;;;19.60;73.10;;;;;;5070094;28;20049;-80
2022/09/04 09:57:18;;;;;;;1.42;0.70;;;19.70;73.40;;;;;;5070283;28;20493;-80
2022/09/04 10:00:10;;;;;;;1.92;0.80;;;19.70;73.00;;;;;;5069891;28;20477;-80
2022/09/04 10:02:58;;;;;;;1.05;0.70;;;19.80;73.20;;;;;;5069897;28;20124;-80
2022/09/04 10:05:43;;;;;;;1.83;1.02;;;19.90;72.90;;;;;;5086555;28;20070;-80
2022/09/04 10:08:35;;;;;;;1.90;0.90;;;19.90;72.50;;;;;;5086697;28;20047;-80
2022/09/04 10:11:39;;;;;;;1.85;1.00;;;19.90;72.80;;;;;;5069492;28;20045;-80
2022/09/04 10:14:34;;;;;;;3.03;1.02;;;20.00;73.00;;;;;;5069783;28;20071;-80
2022/09/04 10:17:23;;;;;;;2.10;1.15;;;20.00;72.50;;;;;;5041422;28;20044;-80
2022/09/04 10:20:26;;;;;;;3.22;0.90;;;20.10;72.40;;;;;;5086352;28;20036;-80
2022/09/04 10:23:04;;;;;;;1.67;0.70;;;20.20;72.50;;;;;;5052596;28;20041;-80
2022/09/04 10:25:53;;;;;;;1.40;0.77;;;20.30;72.10;;;;;;5086069;28;20078;-80
2022/09/04 10:28:39;;;;;;;1.40;0.77;;;20.30;71.90;;;;;;5103007;28;20049;-80
2022/09/04 10:31:18;;;;;;;1.63;0.70;;;20.30;71.40;;;;;;5103099;28;20044;-80
2022/09/04 10:34:10;;;;;;;1.45;0.82;;;20.40;71.80;;;;;;5069358;28;20543;-80
2022/09/04 10:36:41;;;;;;;1.00;0.70;;;20.40;71.60;;;;;;5052414;28;20044;-80
2022/09/04 10:42:39;;;;;;;2.90;0.80;;;20.50;71.20;;;;;;5103168;28;20060;-80
2022/09/04 10:45:22;;;;;;;2.95;0.80;;;20.50;70.40;;;;;;5066347;28;20055;-80
2022/09/04 10:48:08;;;;;;;1.45;0.73;;;20.60;70.70;;;;;;5068906;28;20059;-80
2022/09/04 10:51:11;;;;;;;2.38;0.73;;;20.60;70.00;;;;;;5052261;28;20486;-80
2022/09/04 10:54:13;;;;;;;1.73;0.90;;;20.70;69.80;;;;;;5068666;28;20040;-80
2022/09/04 10:56:57;;;;;;;1.30;0.80;;;20.80;69.60;;;;;;5102597;28;20041;-80
2022/09/04 11:00:00;;;;;;;1.60;0.80;;;20.90;69.90;;;;;;5102682;28;20076;-80
2022/09/04 11:02:45;;;;;;;1.48;0.80;;;21.00;69.50;;;;;;5069021;28;20074;-80
2022/09/04 11:05:39;;;;;;;1.30;0.80;;;21.00;70.20;;;;;;5102688;28;20074;-80
2022/09/04 11:08:26;;;;;;;1.85;0.90;;;21.00;69.70;;;;;;5052101;28;20041;-80
2022/09/04 11:11:06;;;;;;;2.22;1.05;;;21.00;69.70;;;;;;5102872;28;20509;-80
2022/09/04 11:14:04;;;;;;;1.10;0.80;;;21.10;69.80;;;;;;5102436;28;20540;-80
2022/09/04 11:17:08;;;;;;;1.15;0.68;;;21.20;70.40;;;;;;5051837;28;20498;-80
2022/09/04 11:20:14;;;;;;;1.30;0.73;;;21.20;69.20;;;;;;5068664;28;20040;-80
2022/09/04 11:23:01;;;;;;;;;;;21.30;68.50;;;;;;5068881;28;20040;-80
2022/09/04 11:25:27;;;;;;;1.00;0.60;;;21.40;68.30;;;;;;5068823;28;19916;-80
2022/09/04 11:27:58;;;;;;;1.38;0.68;;;21.40;69.20;;;;;;5085281;28;20486;-80
2022/09/04 11:30:55;;;;;;;2.03;0.95;;;21.40;69.50;;;;;;5102352;28;20040;-80
2022/09/04 11:33:49;;;;;;;3.22;0.63;;;21.40;69.10;;;;;;5068583;28;20040;-80
2022/09/04 11:36:14;;;;;;;1.15;0.85;;;21.40;69.30;;;;;;5069077;28;20446;-80
2022/09/04 11:39:08;;;;;;;3.10;0.70;;;21.50;69.30;;;;;;5068290;28;20131;-80
2022/09/04 11:42:07;;;;;;;1.42;0.93;;;21.50;69.30;;;;;;5102065;28;20040;-80
2022/09/04 11:44:51;;;;;;;1.40;0.85;;;21.60;68.60;;;;;;5051890;28;20044;-80
2022/09/04 11:47:55;;;;;;;1.30;0.95;;;21.60;68.60;;;;;;5085265;28;20417;-80
2022/09/04 11:50:55;;;;;;;1.42;0.70;;;21.60;69.30;;;;;;5051604;28;20045;-80
2022/09/04 11:53:38;;;;;;;1.67;0.98;;;21.70;69.60;;;;;;5035110;28;20057;-80
2022/09/04 11:56:49;;;;;;;1.80;0.70;;;21.70;69.10;;;;;;5051778;28;20482;-80
2022/09/04 12:00:06;;;;;;;1.38;0.73;;;21.70;68.70;;;;;;5035113;28;20048;-79
2022/09/04 12:02:49;;;;;;;0.98;0.55;;;21.80;69.30;;;;;;5026575;28;20054;-80
2022/09/04 12:05:23;;;;;;;1.52;0.70;;;21.80;68.40;;;;;;5069793;28;20497;-80
2022/09/04 12:08:13;;;;;;;1.20;0.70;;;21.90;69.10;;;;;;5054968;28;20127;-80
2022/09/04 12:10:58;;;;;;;1.05;0.60;;;21.90;68.60;;;;;;5071997;28;20040;-80
2022/09/04 12:13:45;;;;;;;1.37;0.77;;;21.90;69.10;;;;;;5073320;28;20085;-80
2022/09/04 12:16:23;;;;;;;1.35;0.70;;;22.00;69.00;;;;;;5071889;28;20163;-80
2022/09/04 12:19:33;;;;;;;1.55;0.75;;;22.00;68.80;;;;;;5105655;28;20047;-80
2022/09/04 12:22:17;;;;;;;1.10;0.65;;;22.00;68.50;;;;;;5105584;28;20498;-80
2022/09/04 12:25:27;;;;;;;1.37;0.70;;;22.00;69.10;;;;;;5071806;28;20090;-80
2022/09/04 12:28:36;;;;;;;1.25;0.63;;;22.10;70.40;;;;;;5052576;28;20060;-80
2022/09/04 12:31:17;;;;;;;0.98;0.52;;;22.20;69.60;;;;;;5071979;28;20324;-79
2022/09/04 12:34:04;;;;;;;1.65;0.90;;;22.20;69.20;;;;;;5071792;28;20524;-80
2022/09/04 12:36:59;;;;;;;1.55;0.95;;;22.20;69.50;;;;;;5088312;28;20086;-79
2022/09/04 12:40:01;;;;;;;1.38;0.85;;;22.20;68.30;;;;;;5069429;28;20048;-79
2022/09/04 12:43:15;;;;;;;2.17;0.85;;;22.20;68.00;;;;;;5071509;28;20099;-79
2022/09/04 12:45:46;;;;;;;1.75;0.80;;;22.30;68.50;;;;;;5039694;28;20118;-79
2022/09/04 12:48:26;;;;;;;1.08;0.73;;;22.30;68.60;;;;;;5071001;28;20048;-80
2022/09/04 12:51:10;;;;;;;1.63;0.75;;;22.40;67.90;;;;;;5054460;28;20044;-80
2022/09/04 12:54:02;;;;;;;1.50;0.70;;;22.40;68.70;;;;;;5070972;28;20402;-79
2022/09/04 12:56:44;;;;;;;1.15;0.70;;;22.40;68.60;;;;;;5071116;28;20039;-79
2022/09/04 12:59:34;;;;;;;1.42;0.77;;;22.40;68.30;;;;;;5071239;28;20437;-79
2022/09/04 13:02:34;;;;;;;1.10;0.68;;;22.50;67.80;;;;;;5070769;28;20048;-79
2022/09/04 13:05:37;;;;;;;1.10;0.70;;;22.50;67.90;;;;;;5054488;28;20451;-80
2022/09/04 13:08:37;;;;;;;1.30;0.65;;;22.50;67.20;;;;;;5070790;28;20047;-80
2022/09/04 13:11:26;;;;;;;1.70;0.90;;;22.50;67.30;;;;;;5070894;28;20121;-79
2022/09/04 13:14:28;;;;;;;1.90;0.80;;;22.60;67.70;;;;;;5104656;28;20040;-79
2022/09/04 13:17:16;;;;;;;1.63;0.73;;;22.60;67.20;;;;;;5069471;28;20043;-80
2022/09/04 13:20:17;;;;;;;1.83;0.77;;;22.60;67.80;;;;;;5054159;28;20143;-79
2022/09/04 13:23:04;;;;;;;1.10;0.75;;;22.60;67.50;;;;;;5104339;28;20138;-79
2022/09/04 13:25:44;;;;;;;1.13;0.77;;;22.60;67.60;;;;;;5087568;28;20052;-80
2022/09/04 13:28:44;;;;;;;1.83;0.77;;;22.70;67.90;;;;;;5087259;28;20044;-79
2022/09/04 13:31:18;;;;;;;1.88;0.70;;;22.60;66.60;;;;;;5053699;28;20052;-80
2022/09/04 13:34:12;;;;;;;1.15;0.57;;;22.60;67.50;;;;;;5071604;28;20464;-79
2022/09/04 13:36:40;;;;;;;1.20;0.80;;;22.60;68.40;;;;;;5104079;28;20047;-79
2022/09/04 13:39:20;;;;;;;1.83;1.00;;;22.70;68.20;;;;;;5086891;28;20520;-80
2022/09/04 13:41:56;;;;;;;1.20;0.70;;;22.70;67.80;;;;;;5104527;28;20071;-79
2022/09/04 13:44:59;;;;;;;1.23;0.70;;;22.70;67.70;;;;;;5104063;28;20044;-79
2022/09/04 13:47:29;;;;;;;1.98;0.95;;;22.70;67.60;;;;;;5070132;28;20537;-79
2022/09/04 13:50:16;;;;;;;1.23;0.73;;;22.70;67.90;;;;;;5053065;28;20132;-80
2022/09/04 13:52:52;;;;;;;1.77;0.73;;;22.70;67.90;;;;;;5104173;28;20398;-80
2022/09/04 13:55:34;;;;;;;1.48;0.98;;;22.70;68.10;;;;;;5053493;28;20040;-80
2022/09/04 13:58:18;;;;;;;1.30;0.70;;;22.70;67.80;;;;;;5086737;28;20405;-80
2022/09/04 14:01:08;;;;;;;1.30;0.70;;;22.80;67.70;;;;;;5070072;28;20048;-80
2022/09/04 14:03:47;;;;;;;1.88;0.80;;;22.80;66.90;;;;;;5070049;28;20040;-80
2022/09/04 14:06:17;;;;;;;0.80;0.65;;;22.80;67.40;;;;;;5069952;28;20055;-80
2022/09/04 14:08:44;;;;;;;1.52;1.00;;;22.80;67.30;;;;;;5052845;28;20565;-80
2022/09/04 14:11:22;;;;;;;1.35;1.00;;;22.90;66.90;;;;;;5103388;28;20119;-81
2022/09/04 14:14:09;;;;;;;1.60;0.90;;;23.00;66.20;;;;;;5103380;28;20032;-80
2022/09/04 14:16:38;;;;;;;1.92;1.02;;;23.10;66.30;;;;;;5052873;28;20040;-80
2022/09/04 14:19:23;;;;;;;1.77;0.70;;;23.10;66.00;;;;;;5103166;28;20075;-80
2022/09/04 14:22:07;;;;;;;1.50;0.82;;;23.10;65.80;;;;;;5069567;28;20052;-80
2022/09/04 14:24:44;;;;;;;0.88;0.57;;;23.10;65.60;;;;;;5052464;28;20092;-80
2022/09/04 14:27:33;;;;;;;1.88;1.00;;;23.10;65.80;;;;;;5052582;28;20123;-80
2022/09/04 14:30:02;;;;;;;1.90;0.82;;;23.20;64.60;;;;;;5052665;28;20043;-80
2022/09/04 14:32:53;;;;;;;1.80;0.90;;;23.20;65.10;;;;;;5069094;28;20490;-80